Time;durP1;ratioP1;P1;durP2;ratioP2;P2;SDS_P1;SDS_P2;PMS_P1;PMS_P2;Temp;Humidity;BMP_temperature;BMP_pressure;BME280_temperature;BME280_humidity;BME280_pressure;Samples;Min_cycle;Max_cycle;Signal;HPM_P1;HPM_P2
2021/11/24 00:01:29;;;;;;;10.25;2.78;;;;;;;-145.71;100.00;60690.53;4782968;30;20504;-91
2021/11/24 00:04:53;;;;;;;7.03;1.80;;;;;;;-145.71;100.00;60690.53;4769222;30;20040;-91
2021/11/24 00:08:17;;;;;;;8.60;1.73;;;;;;;-145.71;100.00;60690.53;4782292;30;20485;-91
2021/11/24 00:11:41;;;;;;;10.02;1.70;;;;;;;-145.71;100.00;60690.53;4768609;30;20067;-91
2021/11/24 00:15:06;;;;;;;11.43;2.30;;;;;;;-145.71;100.00;60690.53;4786482;29;20042;-91
2021/11/24 00:18:30;;;;;;;8.65;1.92;;;;;;;-145.71;100.00;60690.53;4768331;30;20533;-91
2021/11/24 00:21:54;;;;;;;9.18;1.52;;;;;;;-145.71;100.00;60690.53;4782313;30;20060;-91
2021/11/24 00:25:18;;;;;;;13.40;1.88;;;;;;;-145.71;100.00;60690.53;4782112;29;20048;-92
2021/11/24 00:28:42;;;;;;;6.93;1.83;;;;;;;-145.71;100.00;60690.53;4768245;30;20100;-91
2021/11/24 00:32:07;;;;;;;7.07;1.90;;;;;;;-145.71;100.00;60690.53;4781902;30;20126;-92
2021/11/24 00:35:32;;;;;;;9.68;2.53;;;;;;;-145.71;100.00;60690.53;4767451;30;20043;-91
2021/11/24 00:38:56;;;;;;;8.68;1.50;;;;;;;-145.71;100.00;60690.53;4787256;29;20497;-91
2021/11/24 00:42:20;;;;;;;8.20;1.92;;;;;;;-145.71;100.00;60690.53;4781833;30;20048;-91
2021/11/24 00:45:44;;;;;;;8.07;1.70;;;;;;;-145.71;100.00;60690.53;4781595;29;20047;-92
2021/11/24 00:49:08;;;;;;;6.35;1.33;;;;;;;-145.71;100.00;60690.53;4781618;29;20031;-92
2021/11/24 00:52:32;;;;;;;8.32;1.95;;;;;;;-145.71;100.00;60690.53;4781589;30;20046;-91
2021/11/24 00:55:57;;;;;;;10.60;1.88;;;;;;;-145.71;100.00;60690.53;4781160;29;20042;-91
2021/11/24 00:59:21;;;;;;;6.78;1.40;;;;;;;-145.71;100.00;60690.53;4781361;29;20107;-91
2021/11/24 01:02:45;;;;;;;8.70;1.60;;;;;;;-145.71;100.00;60690.53;4767963;30;20036;-91
2021/11/24 01:06:09;;;;;;;12.73;1.70;;;;;;;-145.71;100.00;60690.53;4782519;30;20039;-92
2021/11/24 01:09:34;;;;;;;8.80;2.13;;;;;;;-145.71;100.00;60690.53;4781340;29;20405;-91
2021/11/24 01:12:58;;;;;;;7.25;1.92;;;;;;;-145.71;100.00;60690.53;4781518;30;20386;-91
2021/11/24 01:16:22;;;;;;;11.10;2.28;;;;;;;-145.71;100.00;60690.53;4784397;29;20048;-91
2021/11/24 01:19:46;;;;;;;6.07;1.67;;;;;;;-145.71;100.00;60690.53;4771205;30;20051;-91
2021/11/24 01:23:10;;;;;;;7.45;2.83;;;;;;;-145.71;100.00;60690.53;4771372;30;20055;-91
2021/11/24 01:26:34;;;;;;;9.07;2.15;;;;;;;-145.71;100.00;60690.53;4771292;30;20371;-91
2021/11/24 01:29:59;;;;;;;9.45;2.80;;;;;;;-145.71;100.00;60690.53;4784840;29;20118;-91
2021/11/24 01:33:23;;;;;;;10.05;3.60;;;;;;;-145.71;100.00;60690.53;4787657;30;20032;-91
2021/11/24 01:36:47;;;;;;;14.98;2.42;;;;;;;-145.71;100.00;60690.53;4771155;30;20035;-91
2021/11/24 01:40:11;;;;;;;10.52;2.30;;;;;;;-145.71;100.00;60690.53;4771001;30;20486;-91
2021/11/24 01:43:35;;;;;;;7.65;2.03;;;;;;;-145.71;100.00;60690.53;4770948;30;20071;-91
2021/11/24 01:47:00;;;;;;;8.43;2.55;;;;;;;-145.71;100.00;60690.53;4785664;30;20134;-91
2021/11/24 01:50:25;;;;;;;8.77;1.55;;;;;;;-145.71;100.00;60690.53;4784417;29;20464;-90
2021/11/24 01:53:49;;;;;;;9.30;1.80;;;;;;;-145.71;100.00;60690.53;4784613;30;20055;-90
2021/11/24 01:57:17;;;;;;;3.88;1.60;;;;;;;-145.71;100.00;60690.53;4784469;30;20040;-91
2021/11/24 02:00:42;;;;;;;10.55;2.42;;;;;;;-145.71;100.00;60690.53;4785049;29;20069;-91
2021/11/24 02:04:06;;;;;;;10.00;2.72;;;;;;;-145.71;100.00;60690.53;4774632;30;20065;-91
2021/11/24 02:07:30;;;;;;;13.80;3.00;;;;;;;-145.71;100.00;60690.53;4784657;30;20426;-91
2021/11/24 02:10:56;;;;;;;5.05;2.28;;;;;;;-145.71;100.00;60690.53;4784303;29;20401;-91
2021/11/24 02:14:20;;;;;;;8.90;2.10;;;;;;;-145.71;100.00;60690.53;4784575;29;20050;-91
2021/11/24 02:17:48;;;;;;;9.82;1.90;;;;;;;-145.71;100.00;60690.53;4784154;30;20501;-91
2021/11/24 02:21:35;;;;;;;15.45;2.13;;;;;;;-145.71;100.00;60690.53;4784111;30;20051;-91
2021/11/24 02:24:59;;;;;;;8.77;2.00;;;;;;;-145.71;100.00;60690.53;4784449;29;20461;-91
2021/11/24 02:28:23;;;;;;;3.33;1.30;;;;;;;-145.71;100.00;60690.53;4783053;30;20040;-91
2021/11/24 02:31:49;;;;;;;4.47;1.60;;;;;;;-145.71;100.00;60690.53;4784659;30;20031;-91
2021/11/24 02:35:13;;;;;;;6.97;2.05;;;;;;;-145.71;100.00;60690.53;4789023;29;20040;-91
2021/11/24 02:38:37;;;;;;;8.70;2.15;;;;;;;-145.71;100.00;60690.53;4783869;30;20036;-92
2021/11/24 02:42:02;;;;;;;6.70;1.60;;;;;;;-145.71;100.00;60690.53;4770573;30;20490;-91
2021/11/24 02:45:32;;;;;;;6.90;1.70;;;;;;;-145.71;100.00;60690.53;4784433;29;20035;-91
2021/11/24 02:48:57;;;;;;;4.15;1.45;;;;;;;-145.71;100.00;60690.53;4783577;30;20039;-91
2021/11/24 02:52:22;;;;;;;9.25;1.58;;;;;;;-145.71;100.00;60690.53;4770051;30;20036;-91
2021/11/24 02:55:47;;;;;;;5.50;1.90;;;;;;;-145.71;100.00;60690.53;4783749;29;20039;-91
2021/11/24 02:59:11;;;;;;;6.97;1.80;;;;;;;-145.71;100.00;60690.53;4786505;29;20043;-90
2021/11/24 03:02:38;;;;;;;9.00;1.80;;;;;;;-145.71;100.00;60690.53;4784923;30;20040;-91
2021/11/24 03:06:03;;;;;;;7.03;1.30;;;;;;;-145.71;100.00;60690.53;4769627;30;20486;-91
2021/11/24 03:09:27;;;;;;;5.60;1.60;;;;;;;-145.71;100.00;60690.53;4769793;30;20048;-91
2021/11/24 03:12:52;;;;;;;7.28;1.45;;;;;;;-145.71;100.00;60690.53;4783316;30;20043;-91
2021/11/24 03:16:16;;;;;;;6.80;1.50;;;;;;;-145.71;100.00;60690.53;4789771;29;20039;-91
2021/11/24 03:19:40;;;;;;;5.93;1.55;;;;;;;-145.71;100.00;60690.53;4790609;29;20036;-92
2021/11/24 03:23:04;;;;;;;8.68;1.70;;;;;;;-145.71;100.00;60690.53;4769765;30;20078;-91
2021/11/24 03:26:28;;;;;;;10.68;1.73;;;;;;;-145.71;100.00;60690.53;4783106;30;20028;-91
2021/11/24 03:29:53;;;;;;;6.65;1.88;;;;;;;-145.71;100.00;60690.53;4777929;30;20036;-91
2021/11/24 03:33:17;;;;;;;11.07;2.15;;;;;;;-145.71;100.00;60690.53;4783067;30;20036;-91
2021/11/24 03:36:41;;;;;;;10.13;1.63;;;;;;;-145.71;100.00;60690.53;4769399;30;20087;-91
2021/11/24 03:40:07;;;;;;;8.63;1.67;;;;;;;-145.71;100.00;60690.53;4783510;29;20088;-92
2021/11/24 03:43:31;;;;;;;5.78;1.58;;;;;;;-145.71;100.00;60690.53;4783129;30;20027;-91
2021/11/24 03:46:55;;;;;;;7.10;1.38;;;;;;;-145.71;100.00;60690.53;4782350;30;20061;-91
2021/11/24 03:50:19;;;;;;;8.32;1.73;;;;;;;-145.71;100.00;60690.53;4782615;29;20721;-91
2021/11/24 03:53:43;;;;;;;5.93;1.40;;;;;;;-145.71;100.00;60690.53;4769679;30;20036;-90
2021/11/24 03:57:07;;;;;;;7.43;1.35;;;;;;;-145.71;100.00;60690.53;4782839;30;20067;-91
2021/11/24 04:00:32;;;;;;;5.38;1.55;;;;;;;-145.71;100.00;60690.53;4768715;30;20044;-91
2021/11/24 04:03:56;;;;;;;8.13;1.30;;;;;;;-145.71;100.00;60690.53;4769001;30;20036;-91
2021/11/24 04:07:20;;;;;;;8.68;1.38;;;;;;;-145.71;100.00;60690.53;4784942;30;20138;-91
2021/11/24 04:10:44;;;;;;;8.00;2.00;;;;;;;-145.71;100.00;60690.53;4782286;29;20050;-91
2021/11/24 04:14:08;;;;;;;8.43;1.23;;;;;;;-145.71;100.00;60690.53;4768707;30;20409;-91
2021/11/24 04:17:33;;;;;;;8.18;1.40;;;;;;;-145.71;100.00;60690.53;4782023;30;20056;-91
2021/11/24 04:20:57;;;;;;;6.88;1.50;;;;;;;-145.71;100.00;60690.53;4790535;29;20097;-91
2021/11/24 04:24:22;;;;;;;3.50;1.15;;;;;;;-145.71;100.00;60690.53;4768438;30;20413;-91
2021/11/24 04:27:46;;;;;;;4.50;1.23;;;;;;;-145.71;100.00;60690.53;4781797;30;20408;-91
2021/11/24 04:31:11;;;;;;;3.83;1.15;;;;;;;-145.71;100.00;60690.53;4782338;30;20516;-91
2021/11/24 04:34:35;;;;;;;4.95;1.48;;;;;;;-145.71;100.00;60690.53;4781750;29;20046;-91
2021/11/24 04:38:00;;;;;;;5.55;1.58;;;;;;;-145.71;100.00;60690.53;4768496;30;20040;-91
2021/11/24 04:41:23;;;;;;;5.65;1.98;;;;;;;-145.71;100.00;60690.53;4782078;30;20043;-91
2021/11/24 04:44:48;;;;;;;3.55;1.40;;;;;;;-145.71;100.00;60690.53;4768232;30;20066;-91
2021/11/24 04:48:11;;;;;;;7.68;1.73;;;;;;;-145.71;100.00;60690.53;4781769;30;20150;-91
2021/11/24 04:51:36;;;;;;;5.70;1.95;;;;;;;-145.71;100.00;60690.53;4781283;30;20389;-91
2021/11/24 04:54:59;;;;;;;6.82;1.85;;;;;;;-145.71;100.00;60690.53;4769358;30;20036;-91
2021/11/24 04:58:23;;;;;;;4.60;1.30;;;;;;;-145.71;100.00;60690.53;4781906;30;20047;-91
2021/11/24 05:01:47;;;;;;;8.07;1.30;;;;;;;-145.71;100.00;60690.53;4781385;30;20062;-91
2021/11/24 05:05:12;;;;;;;4.55;1.10;;;;;;;-145.71;100.00;60690.53;4781567;29;20040;-91
2021/11/24 05:08:37;;;;;;;6.63;1.50;;;;;;;-145.71;100.00;60690.53;4781500;30;20039;-90
2021/11/24 05:12:03;;;;;;;4.10;1.63;;;;;;;-145.71;100.00;60690.53;4767901;30;20040;-90
2021/11/24 05:15:32;;;;;;;6.45;1.67;;;;;;;-145.71;100.00;60690.53;4767976;30;20035;-90
2021/11/24 05:33:50;;;;;;;6.00;2.60;;;;;;;-145.71;100.00;60690.53;5307030;24;20026;-90
2021/11/24 06:04:41;;;;;;;10.75;4.15;;;;;;;-145.71;100.00;60690.53;4554232;24;20618;-90
2021/11/24 06:11:53;;;;;;;7.90;5.53;;;;;;;-145.71;100.00;60690.53;4810970;24;20120;-90
2021/11/24 07:24:44;;;;;;;4.13;2.10;;;;;;;-145.71;100.00;60690.53;5849597;24;20021;-91
2021/11/24 07:47:08;;;;;;;5.63;2.22;;;;;;;-145.71;100.00;60690.53;5798988;24;20097;-91
2021/11/24 09:07:28;;;;;;;10.18;1.67;;;;;;;-145.71;100.00;60690.53;5570428;24;20033;-92
2021/11/24 18:09:26;;;;;;;32.08;17.40;;;;;;;-145.71;100.00;60690.53;2300635;24;20025;31
2021/11/24 18:12:51;;;;;;;28.73;16.48;;;;;;;-145.71;100.00;60690.53;4961038;24;19980;-91
2021/11/24 19:13:57;;;;;;;33.45;21.08;;;;;;;-145.71;100.00;60690.53;1369822;24;20140;-89
2021/11/24 19:17:21;;;;;;;32.88;22.75;;;;;;;-145.71;100.00;60690.53;4768092;30;20059;-91
2021/11/24 19:20:45;;;;;;;41.25;22.80;;;;;;;-145.71;100.00;60690.53;4769843;30;20061;-91
2021/11/24 19:24:09;;;;;;;34.85;23.40;;;;;;;-145.71;100.00;60690.53;4769996;30;20027;-90
2021/11/24 19:27:33;;;;;;;36.33;23.92;;;;;;;-145.71;100.00;60690.53;4769705;30;20114;-91
2021/11/24 19:30:59;;;;;;;42.03;26.63;;;;;;;-145.71;100.00;60690.53;4753049;30;20478;-90
2021/11/24 19:34:23;;;;;;;36.65;23.02;;;;;;;-145.71;100.00;60690.53;4753152;30;20032;-90
2021/11/24 19:37:48;;;;;;;41.65;24.27;;;;;;;-145.71;100.00;60690.53;4769220;30;20032;-91
2021/11/24 19:41:16;;;;;;;36.05;22.90;;;;;;;-145.71;100.00;60690.53;4769585;30;20519;-90
2021/11/24 19:44:40;;;;;;;39.92;23.20;;;;;;;-145.71;100.00;60690.53;4753457;30;20050;-90
2021/11/24 19:48:05;;;;;;;41.78;24.20;;;;;;;-145.71;100.00;60690.53;4753916;30;20035;-90
2021/11/24 19:51:29;;;;;;;38.95;24.00;;;;;;;-145.71;100.00;60690.53;4753790;30;20065;-90
2021/11/24 19:54:53;;;;;;;44.80;25.73;;;;;;;-145.71;100.00;60690.53;4770349;30;20119;-90
2021/11/24 19:58:17;;;;;;;47.42;27.85;;;;;;;-145.71;100.00;60690.53;4769426;30;20067;-90
2021/11/24 20:01:41;;;;;;;42.38;24.45;;;;;;;-145.71;100.00;60690.53;4753447;30;20413;-91
2021/11/24 20:05:06;;;;;;;48.45;24.75;;;;;;;-145.71;100.00;60690.53;4753034;30;20103;-90
2021/11/24 20:08:30;;;;;;;32.30;21.55;;;;;;;-145.71;100.00;60690.53;4753749;30;20043;-91
2021/11/24 20:11:54;;;;;;;38.85;23.55;;;;;;;-145.71;100.00;60690.53;4753806;30;20035;-91
2021/11/24 20:15:22;;;;;;;31.17;22.02;;;;;;;-145.71;100.00;60690.53;4752826;30;20159;-91
2021/11/24 20:18:46;;;;;;;34.67;22.27;;;;;;;-145.71;100.00;60690.53;4768790;30;20031;-91
2021/11/24 20:22:10;;;;;;;41.25;22.67;;;;;;;-145.71;100.00;60690.53;4768530;30;20040;-90
2021/11/24 20:25:34;;;;;;;36.50;23.73;;;;;;;-145.71;100.00;60690.53;4752663;30;20032;-91
2021/11/24 20:29:02;;;;;;;39.63;23.08;;;;;;;-145.71;100.00;60690.53;4770452;30;20040;-91
2021/11/24 20:32:26;;;;;;;37.85;22.50;;;;;;;-145.71;100.00;60690.53;4768951;30;20044;-91
2021/11/24 20:35:50;;;;;;;37.13;22.20;;;;;;;-145.71;100.00;60690.53;4768231;30;20062;-91
2021/11/24 20:39:15;;;;;;;44.20;23.77;;;;;;;-145.71;100.00;60690.53;4768670;30;20035;-91
2021/11/24 20:42:41;;;;;;;39.83;22.63;;;;;;;-145.71;100.00;60690.53;4767034;30;20472;-91
2021/11/24 20:46:06;;;;;;;44.65;23.13;;;;;;;-145.71;100.00;60690.53;4768554;30;20036;-91
2021/11/24 20:49:30;;;;;;;41.38;23.63;;;;;;;-145.71;100.00;60690.53;4752281;30;20154;-91
2021/11/24 20:52:55;;;;;;;42.17;22.90;;;;;;;-145.71;100.00;60690.53;4768227;30;20065;-91
2021/11/24 20:56:22;;;;;;;36.80;21.88;;;;;;;-145.71;100.00;60690.53;4768267;30;20028;-91
2021/11/24 20:59:47;;;;;;;31.17;20.85;;;;;;;-145.71;100.00;60690.53;4752082;30;20080;-91
2021/11/24 21:03:12;;;;;;;40.65;21.52;;;;;;;-145.71;100.00;60690.53;4768582;30;20627;-91
2021/11/24 21:06:36;;;;;;;38.33;22.00;;;;;;;-145.71;100.00;60690.53;4766622;30;20040;-91
2021/11/24 21:10:01;;;;;;;43.20;23.90;;;;;;;-145.71;100.00;60690.53;4755575;30;20028;-91
2021/11/24 21:13:25;;;;;;;43.17;21.92;;;;;;;-145.71;100.00;60690.53;4751802;30;20031;-92
2021/11/24 21:16:48;;;;;;;34.15;21.73;;;;;;;-145.71;100.00;60690.53;4768138;30;20039;-91
2021/11/24 21:20:14;;;;;;;33.10;20.52;;;;;;;-145.71;100.00;60690.53;4768170;30;20397;-91
2021/11/24 21:23:38;;;;;;;32.72;19.83;;;;;;;-145.71;100.00;60690.53;4771233;30;20038;-91
2021/11/24 21:27:04;;;;;;;34.25;19.98;;;;;;;-145.71;100.00;60690.53;4768055;30;20078;-91
2021/11/24 21:30:29;;;;;;;32.15;19.45;;;;;;;-145.71;100.00;60690.53;4767952;30;20039;-91
2021/11/24 21:33:53;;;;;;;37.25;19.52;;;;;;;-145.71;100.00;60690.53;4753050;30;20473;-91
2021/11/24 21:37:17;;;;;;;38.10;21.55;;;;;;;-145.71;100.00;60690.53;4771565;30;20178;-91
2021/11/24 21:40:42;;;;;;;30.08;18.77;;;;;;;-145.71;100.00;60690.53;4772012;30;20046;-91
2021/11/24 21:44:06;;;;;;;41.22;18.80;;;;;;;-145.71;100.00;60690.53;4771546;30;20048;-91
2021/11/24 21:47:30;;;;;;;30.33;17.73;;;;;;;-145.71;100.00;60690.53;4771412;30;20050;-91
2021/11/24 21:50:54;;;;;;;31.73;18.95;;;;;;;-145.71;100.00;60690.53;4770004;30;20038;-91
2021/11/24 21:54:18;;;;;;;30.60;17.40;;;;;;;-145.71;100.00;60690.53;4772263;30;20031;-91
2021/11/24 21:57:42;;;;;;;34.30;17.02;;;;;;;-145.71;100.00;60690.53;4774303;30;20785;-91
2021/11/24 22:01:09;;;;;;;28.08;17.75;;;;;;;-145.71;100.00;60690.53;4754870;30;20130;-91
2021/11/24 22:04:33;;;;;;;38.28;18.95;;;;;;;-145.71;100.00;60690.53;4755387;30;20043;-91
2021/11/24 22:11:33;;;;;;;33.88;19.02;;;;;;;-145.71;100.00;60690.53;4771309;30;20047;-91
2021/11/24 22:14:57;;;;;;;24.98;16.38;;;;;;;-145.71;100.00;60690.53;4779599;30;20134;-92
2021/11/24 22:18:22;;;;;;;29.48;16.13;;;;;;;-145.71;100.00;60690.53;4770943;30;20157;-92
2021/11/24 22:21:46;;;;;;;33.63;16.60;;;;;;;-145.71;100.00;60690.53;4770980;30;20028;-92
2021/11/24 22:25:10;;;;;;;24.13;15.32;;;;;;;-145.71;100.00;60690.53;4754953;30;20040;-92
2021/11/24 22:28:35;;;;;;;27.88;16.08;;;;;;;-145.71;100.00;60690.53;4754695;30;20181;-91
2021/11/24 22:32:04;;;;;;;28.50;15.93;;;;;;;-145.71;100.00;60690.53;4775770;30;20063;-92
2021/11/24 22:35:28;;;;;;;21.40;13.57;;;;;;;-145.71;100.00;60690.53;4754625;30;20050;-92
2021/11/24 22:38:52;;;;;;;20.02;13.68;;;;;;;-145.71;100.00;60690.53;4770280;30;20490;-92
2021/11/24 22:42:16;;;;;;;26.88;14.38;;;;;;;-145.71;100.00;60690.53;4754451;30;20474;-92
2021/11/24 22:45:40;;;;;;;22.40;13.88;;;;;;;-145.71;100.00;60690.53;4754185;30;20397;-92
2021/11/24 22:49:04;;;;;;;19.83;13.45;;;;;;;-145.71;100.00;60690.53;4754538;30;20131;-92
2021/11/24 22:52:28;;;;;;;25.90;13.65;;;;;;;-145.71;100.00;60690.53;4760351;30;20039;-92
2021/11/24 22:55:52;;;;;;;22.30;13.05;;;;;;;-145.71;100.00;60690.53;4754048;30;20134;-92
2021/11/24 22:59:19;;;;;;;22.80;13.80;;;;;;;-145.71;100.00;60690.53;4753804;30;20036;-92
2021/11/24 23:02:44;;;;;;;19.92;12.73;;;;;;;-145.71;100.00;60690.53;4769191;30;20097;-92
2021/11/24 23:06:08;;;;;;;18.55;12.40;;;;;;;-145.71;100.00;60690.53;4770139;30;20507;-92
2021/11/24 23:09:32;;;;;;;18.30;13.57;;;;;;;-145.71;100.00;60690.53;4773730;30;20078;-91
2021/11/24 23:12:56;;;;;;;25.83;13.50;;;;;;;-145.71;100.00;60690.53;4753722;30;20093;-91
2021/11/24 23:16:20;;;;;;;20.30;12.93;;;;;;;-145.71;100.00;60690.53;4753424;30;20066;-92
2021/11/24 23:19:44;;;;;;;17.02;11.75;;;;;;;-145.71;100.00;60690.53;4753763;30;20036;-91
2021/11/24 23:23:09;;;;;;;21.20;12.73;;;;;;;-145.71;100.00;60690.53;4756404;30;20036;-91
2021/11/24 23:26:33;;;;;;;28.13;14.23;;;;;;;-145.71;100.00;60690.53;4753547;30;20069;-91
2021/11/24 23:29:57;;;;;;;24.73;11.98;;;;;;;-145.71;100.00;60690.53;4768298;30;20090;-91
2021/11/24 23:33:32;;;;;;;18.00;12.15;;;;;;;-145.71;100.00;60690.53;4769461;30;20104;-91
2021/11/24 23:36:56;;;;;;;20.20;11.88;;;;;;;-145.71;100.00;60690.53;4769336;30;20070;-92
2021/11/24 23:40:21;;;;;;;21.85;11.98;;;;;;;-145.71;100.00;60690.53;4753607;30;20497;-91
2021/11/24 23:43:44;;;;;;;23.15;12.82;;;;;;;-145.71;100.00;60690.53;4753194;30;20035;-91
2021/11/24 23:47:09;;;;;;;16.70;11.63;;;;;;;-145.71;100.00;60690.53;4753099;30;20493;-91
2021/11/24 23:50:34;;;;;;;19.48;13.40;;;;;;;-145.71;100.00;60690.53;4769433;30;20075;-91
2021/11/24 23:53:58;;;;;;;20.83;11.60;;;;;;;-145.71;100.00;60690.53;4753037;30;20071;-92
2021/11/24 23:57:22;;;;;;;18.75;11.85;;;;;;;-145.71;100.00;60690.53;4770656;30;20785;-92
